UKOH/KHE METAR and TAF weather

Enter ICAO airport designator
Station Type Date Time Source
UKOH METAR 2019/04/20 19:00 UTC NOAA

UKOH 201900Z 01002MPS CAVOK 06/M02 Q1024 R03/CLRD// NOSIG


Station Type Date Time Source
UKOH Decoded METAR 2019/04/20 19:00 UTC NOAA

Station name not available
Apr 20, 2019 - 03:00 PM EDT / 2019.04.20 1900 UTC
Wind: from the N (010 degrees) at 4 MPH (4 KT):0
Visibility: greater than 7 mile(s):0
Temperature: 42 F (6 C)
Dew Point: 28 F (-2 C)
Relative Humidity: 56%
Pressure (altimeter): 30.24 in. Hg (1024 hPa)
ob: UKOH 201900Z 01002MPS CAVOK 06/M02 Q1024 R03/CLRD// NOSIG
cycle: 19

Station Type Date Time Source
UKOH TAF UTC NOAA

Error!

Example: see airport list